sensor_id;sensor_type;location;lat;lon;timestamp;temperature;humidity
73833;SHT30;62179;48.444;-4.464;2022-10-17T18:06:28;18.01;79.83
73833;SHT30;62179;48.444;-4.464;2022-10-17T18:08:57;18.00;80.10
73833;SHT30;62179;48.444;-4.464;2022-10-17T18:11:22;18.00;80.15
73833;SHT30;62179;48.444;-4.464;2022-10-17T18:14:05;17.98;80.29
73833;SHT30;62179;48.444;-4.464;2022-10-17T18:16:32;18.01;80.27
73833;SHT30;62179;48.444;-4.464;2022-10-17T18:19:01;18.00;80.25
73833;SHT30;62179;48.444;-4.464;2022-10-17T18:21:27;18.00;80.19
73833;SHT30;62179;48.444;-4.464;2022-10-17T18:23:52;17.98;80.21
73833;SHT30;62179;48.444;-4.464;2022-10-17T18:26:18;18.00;80.19
73833;SHT30;62179;48.444;-4.464;2022-10-17T18:28:44;18.02;80.28
73833;SHT30;62179;48.444;-4.464;2022-10-17T18:31:15;18.02;80.31
73833;SHT30;62179;48.444;-4.464;2022-10-17T18:33:43;18.04;80.38
73833;SHT30;62179;48.444;-4.464;2022-10-17T18:36:13;18.07;80.57
73833;SHT30;62179;48.444;-4.464;2022-10-17T18:38:40;18.04;80.96
73833;SHT30;62179;48.444;-4.464;2022-10-17T18:41:14;18.05;81.34
73833;SHT30;62179;48.444;-4.464;2022-10-17T18:43:41;18.04;81.29
73833;SHT30;62179;48.444;-4.464;2022-10-17T18:46:16;18.04;81.53
73833;SHT30;62179;48.444;-4.464;2022-10-17T18:48:43;18.07;81.67
73833;SHT30;62179;48.444;-4.464;2022-10-17T18:51:10;18.05;81.80
73833;SHT30;62179;48.444;-4.464;2022-10-17T18:53:39;18.05;81.85
73833;SHT30;62179;48.444;-4.464;2022-10-17T18:56:05;18.05;81.71
73833;SHT30;62179;48.444;-4.464;2022-10-17T18:58:31;18.02;81.93
73833;SHT30;62179;48.444;-4.464;2022-10-17T19:01:02;18.04;82.23
73833;SHT30;62179;48.444;-4.464;2022-10-17T19:03:28;18.04;82.09
73833;SHT30;62179;48.444;-4.464;2022-10-17T19:05:53;18.05;82.05
73833;SHT30;62179;48.444;-4.464;2022-10-17T19:08:18;18.02;82.07
73833;SHT30;62179;48.444;-4.464;2022-10-17T19:10:44;18.02;82.30
73833;SHT30;62179;48.444;-4.464;2022-10-17T19:13:09;18.04;82.35
73833;SHT30;62179;48.444;-4.464;2022-10-17T19:15:36;18.01;82.56
73833;SHT30;62179;48.444;-4.464;2022-10-17T19:18:02;18.01;82.39
73833;SHT30;62179;48.444;-4.464;2022-10-17T19:20:28;18.02;82.25
73833;SHT30;62179;48.444;-4.464;2022-10-17T19:22:53;18.01;82.33
73833;SHT30;62179;48.444;-4.464;2022-10-17T19:25:18;18.01;82.17
73833;SHT30;62179;48.444;-4.464;2022-10-17T19:27:44;18.02;82.39
73833;SHT30;62179;48.444;-4.464;2022-10-17T19:30:10;18.02;82.37
73833;SHT30;62179;48.444;-4.464;2022-10-17T19:32:37;18.01;82.39
73833;SHT30;62179;48.444;-4.464;2022-10-17T19:35:03;18.02;82.46
73833;SHT30;62179;48.444;-4.464;2022-10-17T19:37:30;18.04;82.48
73833;SHT30;62179;48.444;-4.464;2022-10-17T19:39:56;18.01;82.37
73833;SHT30;62179;48.444;-4.464;2022-10-17T19:42:23;18.02;82.26
73833;SHT30;62179;48.444;-4.464;2022-10-17T19:44:49;18.02;82.11
73833;SHT30;62179;48.444;-4.464;2022-10-17T19:47:14;18.01;82.00
73833;SHT30;62179;48.444;-4.464;2022-10-17T19:49:40;18.04;81.95
73833;SHT30;62179;48.444;-4.464;2022-10-17T19:52:05;18.04;81.87
73833;SHT30;62179;48.444;-4.464;2022-10-17T19:54:31;18.04;81.85
73833;SHT30;62179;48.444;-4.464;2022-10-17T19:56:57;18.02;81.86
73833;SHT30;62179;48.444;-4.464;2022-10-17T19:59:23;18.01;81.89
73833;SHT30;62179;48.444;-4.464;2022-10-17T20:01:49;18.02;81.88
73833;SHT30;62179;48.444;-4.464;2022-10-17T20:04:17;18.04;81.88
73833;SHT30;62179;48.444;-4.464;2022-10-17T20:06:42;18.01;81.79
73833;SHT30;62179;48.444;-4.464;2022-10-17T20:09:10;18.01;81.87
73833;SHT30;62179;48.444;-4.464;2022-10-17T20:11:35;18.02;81.91
73833;SHT30;62179;48.444;-4.464;2022-10-17T20:14:01;18.02;81.88
73833;SHT30;62179;48.444;-4.464;2022-10-17T20:16:29;18.01;81.88
73833;SHT30;62179;48.444;-4.464;2022-10-17T20:18:59;18.02;81.88
73833;SHT30;62179;48.444;-4.464;2022-10-17T20:21:29;18.01;81.84
73833;SHT30;62179;48.444;-4.464;2022-10-17T20:24:05;18.00;81.88
73833;SHT30;62179;48.444;-4.464;2022-10-17T20:26:31;18.00;81.91
73833;SHT30;62179;48.444;-4.464;2022-10-17T20:28:59;17.98;81.89
73833;SHT30;62179;48.444;-4.464;2022-10-17T20:31:25;18.01;81.92
73833;SHT30;62179;48.444;-4.464;2022-10-17T20:33:54;18.01;81.93
